KSAF/SAF METAR and TAF weather

Enter ICAO airport designator
Station Type Date Time Source
KSAF METAR 2018/12/10 12:53 UTC NOAA

KSAF 101253Z AUTO 35005KT 10SM CLR M06/M08 A3037 RMK AO2 SLP291 T10561083


Station Type Date Time Source
KSAF Decoded METAR 2018/12/10 12:53 UTC NOAA

SANTA FE COUNTY MUNICIPAL, NM, United States (KSAF) 35-37N 106-05W 1930M
Dec 10, 2018 - 07:53 AM EST / 2018.12.10 1253 UTC
Wind: from the N (350 degrees) at 6 MPH (5 KT):0
Visibility: 10 mile(s):0
Sky conditions: clear
Temperature: 21.9 F (-5.6 C)
Windchill: 14 F (-10 C):1
Dew Point: 17.1 F (-8.3 C)
Relative Humidity: 81%
Pressure (altimeter): 30.37 in. Hg (1028 hPa)
ob: KSAF 101253Z AUTO 35005KT 10SM CLR M06/M08 A3037 RMK AO2 SLP291 T10561083
cycle: 13

Station Type Date Time Source
KSAF TAF 2018/12/10 12:28 UTC NOAA

TAF KSAF 101126Z 1012/1112 36015KT P6SM BKN200
FM102000 27007KT P6SM BKN150
FM110200 36007KT P6SM BKN100


Example: see airport list